Como, Texas
Current Conditions -  °F | °C
As of 5:35 PM on Wednesday 22 Oct 2014 (Local Time) from KSLR Reporting Station
Clear Clear  
Wind Chill: 77°   Ceiling: Unl
Heat Index: 78°   Visibility: 10mi
Dew Point: 50°   Wind: 5mph
Humidity: 39%   Direction: 110°ESE
Pressure: 30.11"   Gusts: NA
Location:  33.06°N, 95.47°W
Report Text: KSLR 222235Z AUTO 11004KT 10SM CLR 25/10 A3011 RMK AO2 T02500102
Loading
Personal Weather Stations






























Interactive Weather Map
Tropical Storm Tracking
New forecast layout! Learn more

10-Day Weather Forecast

Advertisements
Track Severe Weather on mobile